sensor_id;sensor_type;location;lat;lon;timestamp;P1;durP1;ratioP1;P2;durP2;ratioP2
6300;SDS011;3183;51.010;6.898;2023-02-03T00:00:23;13.77;;;6.23;;
6300;SDS011;3183;51.010;6.898;2023-02-03T00:02:52;15.90;;;6.70;;
6300;SDS011;3183;51.010;6.898;2023-02-03T00:05:20;9.33;;;5.90;;
6300;SDS011;3183;51.010;6.898;2023-02-03T00:07:48;16.67;;;5.63;;
6300;SDS011;3183;51.010;6.898;2023-02-03T00:10:16;14.10;;;6.37;;
6300;SDS011;3183;51.010;6.898;2023-02-03T00:12:45;17.00;;;6.20;;
6300;SDS011;3183;51.010;6.898;2023-02-03T00:15:12;15.30;;;5.70;;
6300;SDS011;3183;51.010;6.898;2023-02-03T00:17:39;14.07;;;5.87;;
6300;SDS011;3183;51.010;6.898;2023-02-03T00:20:07;14.03;;;5.70;;
6300;SDS011;3183;51.010;6.898;2023-02-03T00:22:34;16.93;;;5.83;;
6300;SDS011;3183;51.010;6.898;2023-02-03T00:25:03;11.27;;;5.00;;
6300;SDS011;3183;51.010;6.898;2023-02-03T00:27:30;19.17;;;5.23;;
6300;SDS011;3183;51.010;6.898;2023-02-03T00:29:58;14.50;;;5.50;;
6300;SDS011;3183;51.010;6.898;2023-02-03T00:32:25;14.10;;;5.67;;
6300;SDS011;3183;51.010;6.898;2023-02-03T00:34:52;12.97;;;5.20;;
6300;SDS011;3183;51.010;6.898;2023-02-03T00:37:19;20.20;;;5.27;;
6300;SDS011;3183;51.010;6.898;2023-02-03T00:39:47;8.77;;;4.90;;
6300;SDS011;3183;51.010;6.898;2023-02-03T00:42:15;11.27;;;5.20;;
6300;SDS011;3183;51.010;6.898;2023-02-03T00:44:42;8.40;;;5.20;;
6300;SDS011;3183;51.010;6.898;2023-02-03T00:47:09;12.20;;;5.27;;
6300;SDS011;3183;51.010;6.898;2023-02-03T00:49:36;15.33;;;6.20;;
6300;SDS011;3183;51.010;6.898;2023-02-03T00:52:04;16.27;;;5.97;;
6300;SDS011;3183;51.010;6.898;2023-02-03T00:54:31;11.90;;;4.90;;
6300;SDS011;3183;51.010;6.898;2023-02-03T00:56:58;16.93;;;5.37;;
6300;SDS011;3183;51.010;6.898;2023-02-03T00:59:26;9.80;;;4.43;;
6300;SDS011;3183;51.010;6.898;2023-02-03T01:01:53;14.03;;;5.40;;
6300;SDS011;3183;51.010;6.898;2023-02-03T01:04:21;8.77;;;4.73;;
6300;SDS011;3183;51.010;6.898;2023-02-03T01:06:48;8.30;;;5.10;;
6300;SDS011;3183;51.010;6.898;2023-02-03T01:09:15;12.07;;;4.10;;
6300;SDS011;3183;51.010;6.898;2023-02-03T01:11:42;15.83;;;5.17;;
6300;SDS011;3183;51.010;6.898;2023-02-03T01:14:09;11.47;;;5.17;;
6300;SDS011;3183;51.010;6.898;2023-02-03T01:16:37;9.77;;;4.23;;
6300;SDS011;3183;51.010;6.898;2023-02-03T01:19:05;11.23;;;4.40;;
6300;SDS011;3183;51.010;6.898;2023-02-03T01:21:32;12.60;;;4.90;;
6300;SDS011;3183;51.010;6.898;2023-02-03T01:24:01;17.30;;;5.90;;
6300;SDS011;3183;51.010;6.898;2023-02-03T01:26:28;10.90;;;4.73;;
6300;SDS011;3183;51.010;6.898;2023-02-03T01:28:56;15.43;;;4.27;;
6300;SDS011;3183;51.010;6.898;2023-02-03T01:31:24;14.67;;;5.67;;
6300;SDS011;3183;51.010;6.898;2023-02-03T01:33:53;11.60;;;4.87;;
6300;SDS011;3183;51.010;6.898;2023-02-03T01:36:21;13.17;;;5.00;;
6300;SDS011;3183;51.010;6.898;2023-02-03T01:38:48;10.53;;;4.40;;
6300;SDS011;3183;51.010;6.898;2023-02-03T01:41:17;18.90;;;4.53;;
6300;SDS011;3183;51.010;6.898;2023-02-03T01:43:45;10.03;;;4.77;;
6300;SDS011;3183;51.010;6.898;2023-02-03T01:46:17;14.00;;;4.20;;
6300;SDS011;3183;51.010;6.898;2023-02-03T01:48:45;19.60;;;5.80;;
6300;SDS011;3183;51.010;6.898;2023-02-03T01:51:14;13.63;;;4.90;;
6300;SDS011;3183;51.010;6.898;2023-02-03T01:53:41;10.63;;;4.40;;
6300;SDS011;3183;51.010;6.898;2023-02-03T01:56:08;13.90;;;5.20;;
6300;SDS011;3183;51.010;6.898;2023-02-03T01:58:35;13.73;;;4.43;;
6300;SDS011;3183;51.010;6.898;2023-02-03T02:01:03;10.37;;;4.50;;
6300;SDS011;3183;51.010;6.898;2023-02-03T02:03:31;16.53;;;5.10;;
6300;SDS011;3183;51.010;6.898;2023-02-03T02:06:01;15.40;;;4.37;;
6300;SDS011;3183;51.010;6.898;2023-02-03T02:08:31;24.13;;;5.13;;
6300;SDS011;3183;51.010;6.898;2023-02-03T02:10:58;7.50;;;4.00;;
6300;SDS011;3183;51.010;6.898;2023-02-03T02:13:26;12.90;;;4.70;;
6300;SDS011;3183;51.010;6.898;2023-02-03T02:15:57;18.83;;;4.47;;
6300;SDS011;3183;51.010;6.898;2023-02-03T02:18:35;9.33;;;4.23;;
6300;SDS011;3183;51.010;6.898;2023-02-03T02:29:38;11.83;;;4.70;;
6300;SDS011;3183;51.010;6.898;2023-02-03T02:32:18;17.07;;;4.87;;
6300;SDS011;3183;51.010;6.898;2023-02-03T02:34:48;15.07;;;3.50;;
6300;SDS011;3183;51.010;6.898;2023-02-03T02:37:22;8.80;;;3.37;;
6300;SDS011;3183;51.010;6.898;2023-02-03T02:39:52;9.63;;;3.70;;
6300;SDS011;3183;51.010;6.898;2023-02-03T02:42:22;10.00;;;3.93;;
6300;SDS011;3183;51.010;6.898;2023-02-03T02:44:54;6.33;;;3.37;;
6300;SDS011;3183;51.010;6.898;2023-02-03T02:47:23;20.47;;;3.93;;
6300;SDS011;3183;51.010;6.898;2023-02-03T02:49:52;7.60;;;3.23;;
6300;SDS011;3183;51.010;6.898;2023-02-03T02:52:20;7.93;;;3.17;;
6300;SDS011;3183;51.010;6.898;2023-02-03T02:54:48;6.50;;;3.60;;
6300;SDS011;3183;51.010;6.898;2023-02-03T02:57:17;14.47;;;4.13;;
6300;SDS011;3183;51.010;6.898;2023-02-03T02:59:44;9.20;;;3.60;;
6300;SDS011;3183;51.010;6.898;2023-02-03T03:02:12;7.93;;;3.90;;
6300;SDS011;3183;51.010;6.898;2023-02-03T03:04:40;7.60;;;3.53;;
6300;SDS011;3183;51.010;6.898;2023-02-03T03:07:09;6.60;;;3.20;;
6300;SDS011;3183;51.010;6.898;2023-02-03T03:09:39;12.07;;;4.30;;
6300;SDS011;3183;51.010;6.898;2023-02-03T03:12:09;6.83;;;3.43;;
6300;SDS011;3183;51.010;6.898;2023-02-03T03:14:38;10.97;;;3.60;;
6300;SDS011;3183;51.010;6.898;2023-02-03T03:17:06;7.70;;;3.50;;
6300;SDS011;3183;51.010;6.898;2023-02-03T03:19:36;7.03;;;3.20;;
6300;SDS011;3183;51.010;6.898;2023-02-03T03:22:08;12.20;;;5.10;;
6300;SDS011;3183;51.010;6.898;2023-02-03T03:24:42;10.30;;;4.47;;
6300;SDS011;3183;51.010;6.898;2023-02-03T03:27:12;7.73;;;4.10;;
6300;SDS011;3183;51.010;6.898;2023-02-03T03:29:39;12.13;;;3.90;;
6300;SDS011;3183;51.010;6.898;2023-02-03T03:32:08;9.23;;;4.50;;
6300;SDS011;3183;51.010;6.898;2023-02-03T03:34:35;7.00;;;3.60;;
6300;SDS011;3183;51.010;6.898;2023-02-03T03:37:04;9.37;;;4.77;;
6300;SDS011;3183;51.010;6.898;2023-02-03T03:39:36;7.67;;;3.50;;
6300;SDS011;3183;51.010;6.898;2023-02-03T03:42:09;16.67;;;4.03;;
6300;SDS011;3183;51.010;6.898;2023-02-03T03:44:41;14.40;;;4.57;;
6300;SDS011;3183;51.010;6.898;2023-02-03T03:47:10;11.90;;;4.20;;
6300;SDS011;3183;51.010;6.898;2023-02-03T03:49:38;13.73;;;4.60;;
6300;SDS011;3183;51.010;6.898;2023-02-03T03:52:07;15.33;;;5.83;;
6300;SDS011;3183;51.010;6.898;2023-02-03T03:54:37;11.67;;;4.00;;
6300;SDS011;3183;51.010;6.898;2023-02-03T03:57:06;19.50;;;5.03;;
6300;SDS011;3183;51.010;6.898;2023-02-03T03:59:35;17.17;;;4.70;;
6300;SDS011;3183;51.010;6.898;2023-02-03T04:02:03;13.00;;;4.90;;
6300;SDS011;3183;51.010;6.898;2023-02-03T04:04:30;9.57;;;4.17;;
6300;SDS011;3183;51.010;6.898;2023-02-03T04:06:58;9.83;;;3.90;;
6300;SDS011;3183;51.010;6.898;2023-02-03T04:09:25;12.23;;;4.57;;
6300;SDS011;3183;51.010;6.898;2023-02-03T04:11:54;10.13;;;4.97;;
6300;SDS011;3183;51.010;6.898;2023-02-03T04:14:27;11.83;;;4.77;;
6300;SDS011;3183;51.010;6.898;2023-02-03T04:16:54;12.37;;;4.30;;
6300;SDS011;3183;51.010;6.898;2023-02-03T04:19:22;11.30;;;3.67;;
6300;SDS011;3183;51.010;6.898;2023-02-03T04:21:49;7.70;;;4.10;;
6300;SDS011;3183;51.010;6.898;2023-02-03T04:24:16;9.33;;;3.57;;
6300;SDS011;3183;51.010;6.898;2023-02-03T04:26:43;7.97;;;3.80;;
6300;SDS011;3183;51.010;6.898;2023-02-03T04:29:12;6.30;;;2.97;;
6300;SDS011;3183;51.010;6.898;2023-02-03T04:31:39;11.07;;;3.57;;
6300;SDS011;3183;51.010;6.898;2023-02-03T04:34:06;7.60;;;3.03;;
6300;SDS011;3183;51.010;6.898;2023-02-03T04:36:33;5.03;;;2.40;;
6300;SDS011;3183;51.010;6.898;2023-02-03T04:39:00;12.63;;;4.00;;
6300;SDS011;3183;51.010;6.898;2023-02-03T04:41:27;9.50;;;3.17;;
6300;SDS011;3183;51.010;6.898;2023-02-03T04:43:55;10.80;;;2.90;;
6300;SDS011;3183;51.010;6.898;2023-02-03T04:46:23;8.70;;;3.50;;
6300;SDS011;3183;51.010;6.898;2023-02-03T04:48:50;6.80;;;3.00;;
6300;SDS011;3183;51.010;6.898;2023-02-03T04:51:17;16.83;;;4.07;;
6300;SDS011;3183;51.010;6.898;2023-02-03T04:53:44;8.83;;;3.30;;
6300;SDS011;3183;51.010;6.898;2023-02-03T04:56:11;12.83;;;3.30;;
6300;SDS011;3183;51.010;6.898;2023-02-03T04:58:40;10.37;;;3.80;;
6300;SDS011;3183;51.010;6.898;2023-02-03T05:01:07;14.50;;;4.40;;
6300;SDS011;3183;51.010;6.898;2023-02-03T05:03:36;6.27;;;3.03;;
6300;SDS011;3183;51.010;6.898;2023-02-03T05:06:03;11.40;;;3.75;;
6300;SDS011;3183;51.010;6.898;2023-02-03T05:08:30;11.03;;;3.30;;
6300;SDS011;3183;51.010;6.898;2023-02-03T05:10:58;8.70;;;3.80;;
6300;SDS011;3183;51.010;6.898;2023-02-03T05:13:25;10.97;;;3.33;;
6300;SDS011;3183;51.010;6.898;2023-02-03T05:15:52;12.00;;;3.50;;
6300;SDS011;3183;51.010;6.898;2023-02-03T05:18:19;7.73;;;3.27;;
6300;SDS011;3183;51.010;6.898;2023-02-03T05:20:48;5.67;;;2.90;;
6300;SDS011;3183;51.010;6.898;2023-02-03T05:23:15;10.73;;;3.67;;
6300;SDS011;3183;51.010;6.898;2023-02-03T05:25:42;8.43;;;3.17;;
6300;SDS011;3183;51.010;6.898;2023-02-03T05:28:10;5.47;;;3.00;;
6300;SDS011;3183;51.010;6.898;2023-02-03T05:30:37;7.03;;;2.77;;
6300;SDS011;3183;51.010;6.898;2023-02-03T05:33:04;7.80;;;3.77;;
6300;SDS011;3183;51.010;6.898;2023-02-03T05:35:31;11.37;;;2.70;;
6300;SDS011;3183;51.010;6.898;2023-02-03T05:38:00;10.40;;;2.90;;
6300;SDS011;3183;51.010;6.898;2023-02-03T05:40:27;6.07;;;2.30;;
6300;SDS011;3183;51.010;6.898;2023-02-03T05:43:26;12.67;;;2.60;;
6300;SDS011;3183;51.010;6.898;2023-02-03T05:45:53;6.63;;;2.60;;
6300;SDS011;3183;51.010;6.898;2023-02-03T05:48:20;7.23;;;2.83;;
6300;SDS011;3183;51.010;6.898;2023-02-03T05:50:47;8.27;;;2.20;;
6300;SDS011;3183;51.010;6.898;2023-02-03T05:53:16;5.10;;;2.43;;
6300;SDS011;3183;51.010;6.898;2023-02-03T05:55:43;13.70;;;2.10;;
6300;SDS011;3183;51.010;6.898;2023-02-03T05:58:10;12.73;;;2.50;;
6300;SDS011;3183;51.010;6.898;2023-02-03T06:00:37;10.30;;;2.47;;
6300;SDS011;3183;51.010;6.898;2023-02-03T06:03:05;9.57;;;2.43;;
6300;SDS011;3183;51.010;6.898;2023-02-03T06:05:32;12.93;;;2.67;;
6300;SDS011;3183;51.010;6.898;2023-02-03T06:08:01;7.27;;;2.60;;
6300;SDS011;3183;51.010;6.898;2023-02-03T06:10:30;10.20;;;2.50;;
6300;SDS011;3183;51.010;6.898;2023-02-03T06:12:57;6.87;;;2.23;;
6300;SDS011;3183;51.010;6.898;2023-02-03T06:15:24;10.00;;;2.10;;
6300;SDS011;3183;51.010;6.898;2023-02-03T06:17:51;6.00;;;1.60;;
6300;SDS011;3183;51.010;6.898;2023-02-03T06:20:19;5.67;;;2.20;;
6300;SDS011;3183;51.010;6.898;2023-02-03T06:22:46;8.90;;;2.83;;
6300;SDS011;3183;51.010;6.898;2023-02-03T06:25:13;7.57;;;1.93;;
6300;SDS011;3183;51.010;6.898;2023-02-03T06:27:42;10.63;;;2.70;;
6300;SDS011;3183;51.010;6.898;2023-02-03T06:30:09;11.33;;;2.87;;
6300;SDS011;3183;51.010;6.898;2023-02-03T06:32:37;4.90;;;2.30;;
6300;SDS011;3183;51.010;6.898;2023-02-03T06:35:04;9.17;;;2.30;;
6300;SDS011;3183;51.010;6.898;2023-02-03T06:37:31;12.50;;;2.97;;
6300;SDS011;3183;51.010;6.898;2023-02-03T06:39:59;8.73;;;2.40;;
6300;SDS011;3183;51.010;6.898;2023-02-03T06:42:26;8.57;;;2.57;;
6300;SDS011;3183;51.010;6.898;2023-02-03T06:44:58;15.57;;;3.20;;
6300;SDS011;3183;51.010;6.898;2023-02-03T06:47:28;7.70;;;2.40;;
6300;SDS011;3183;51.010;6.898;2023-02-03T06:49:55;5.67;;;2.27;;
6300;SDS011;3183;51.010;6.898;2023-02-03T06:52:22;8.87;;;2.47;;
6300;SDS011;3183;51.010;6.898;2023-02-03T06:54:49;13.50;;;2.57;;
6300;SDS011;3183;51.010;6.898;2023-02-03T06:57:16;6.70;;;2.40;;
6300;SDS011;3183;51.010;6.898;2023-02-03T06:59:43;5.83;;;2.30;;
6300;SDS011;3183;51.010;6.898;2023-02-03T07:02:12;4.63;;;2.37;;
6300;SDS011;3183;51.010;6.898;2023-02-03T07:04:39;6.40;;;3.27;;
6300;SDS011;3183;51.010;6.898;2023-02-03T07:07:09;5.90;;;2.17;;
6300;SDS011;3183;51.010;6.898;2023-02-03T07:09:36;12.17;;;2.67;;
6300;SDS011;3183;51.010;6.898;2023-02-03T07:12:03;17.27;;;2.80;;
6300;SDS011;3183;51.010;6.898;2023-02-03T07:14:30;6.33;;;2.10;;
6300;SDS011;3183;51.010;6.898;2023-02-03T07:16:59;11.67;;;2.87;;
6300;SDS011;3183;51.010;6.898;2023-02-03T07:19:27;6.03;;;2.27;;
6300;SDS011;3183;51.010;6.898;2023-02-03T07:21:55;8.47;;;2.10;;
6300;SDS011;3183;51.010;6.898;2023-02-03T07:24:22;6.30;;;2.17;;
6300;SDS011;3183;51.010;6.898;2023-02-03T07:26:49;9.40;;;2.47;;
6300;SDS011;3183;51.010;6.898;2023-02-03T07:29:16;9.47;;;2.40;;
6300;SDS011;3183;51.010;6.898;2023-02-03T07:31:43;8.67;;;1.93;;
6300;SDS011;3183;51.010;6.898;2023-02-03T07:34:15;8.33;;;2.30;;
6300;SDS011;3183;51.010;6.898;2023-02-03T07:36:43;8.33;;;2.60;;
6300;SDS011;3183;51.010;6.898;2023-02-03T07:39:10;9.27;;;2.60;;
6300;SDS011;3183;51.010;6.898;2023-02-03T07:41:37;9.20;;;2.00;;
6300;SDS011;3183;51.010;6.898;2023-02-03T07:44:05;6.97;;;2.37;;
6300;SDS011;3183;51.010;6.898;2023-02-03T07:46:33;8.13;;;2.53;;
6300;SDS011;3183;51.010;6.898;2023-02-03T07:49:03;6.43;;;2.23;;
6300;SDS011;3183;51.010;6.898;2023-02-03T07:51:30;8.20;;;2.63;;
6300;SDS011;3183;51.010;6.898;2023-02-03T07:53:59;11.87;;;2.97;;
6300;SDS011;3183;51.010;6.898;2023-02-03T07:56:26;5.60;;;2.67;;
6300;SDS011;3183;51.010;6.898;2023-02-03T07:58:54;6.23;;;2.30;;
6300;SDS011;3183;51.010;6.898;2023-02-03T08:01:21;5.93;;;1.93;;
6300;SDS011;3183;51.010;6.898;2023-02-03T08:03:48;7.70;;;2.27;;
6300;SDS011;3183;51.010;6.898;2023-02-03T08:06:16;7.60;;;2.30;;
6300;SDS011;3183;51.010;6.898;2023-02-03T08:08:43;5.50;;;1.70;;
6300;SDS011;3183;51.010;6.898;2023-02-03T08:11:11;7.63;;;2.33;;
6300;SDS011;3183;51.010;6.898;2023-02-03T08:13:38;7.40;;;2.70;;
6300;SDS011;3183;51.010;6.898;2023-02-03T08:16:05;8.03;;;2.03;;
6300;SDS011;3183;51.010;6.898;2023-02-03T08:18:33;5.73;;;2.30;;
6300;SDS011;3183;51.010;6.898;2023-02-03T08:21:00;12.80;;;2.80;;
6300;SDS011;3183;51.010;6.898;2023-02-03T08:23:28;8.47;;;2.00;;
6300;SDS011;3183;51.010;6.898;2023-02-03T08:25:56;4.83;;;1.53;;
6300;SDS011;3183;51.010;6.898;2023-02-03T08:28:24;3.83;;;1.60;;
6300;SDS011;3183;51.010;6.898;2023-02-03T08:30:51;4.83;;;1.93;;
6300;SDS011;3183;51.010;6.898;2023-02-03T08:33:20;13.97;;;2.23;;
6300;SDS011;3183;51.010;6.898;2023-02-03T08:35:48;7.63;;;2.00;;
6300;SDS011;3183;51.010;6.898;2023-02-03T08:38:15;4.80;;;1.87;;
6300;SDS011;3183;51.010;6.898;2023-02-03T08:40:42;7.77;;;1.87;;
6300;SDS011;3183;51.010;6.898;2023-02-03T08:43:09;2.33;;;1.70;;
6300;SDS011;3183;51.010;6.898;2023-02-03T08:45:39;9.60;;;2.70;;
6300;SDS011;3183;51.010;6.898;2023-02-03T08:48:06;7.67;;;2.13;;
6300;SDS011;3183;51.010;6.898;2023-02-03T08:50:33;5.53;;;2.00;;
6300;SDS011;3183;51.010;6.898;2023-02-03T08:53:00;3.47;;;1.70;;
6300;SDS011;3183;51.010;6.898;2023-02-03T08:55:27;6.97;;;2.47;;
6300;SDS011;3183;51.010;6.898;2023-02-03T08:57:54;8.47;;;2.87;;
6300;SDS011;3183;51.010;6.898;2023-02-03T09:00:22;8.13;;;2.70;;
6300;SDS011;3183;51.010;6.898;2023-02-03T09:02:50;9.27;;;3.07;;
6300;SDS011;3183;51.010;6.898;2023-02-03T09:05:17;7.83;;;2.90;;
6300;SDS011;3183;51.010;6.898;2023-02-03T09:07:45;9.23;;;2.60;;
6300;SDS011;3183;51.010;6.898;2023-02-03T09:10:12;7.63;;;2.80;;
6300;SDS011;3183;51.010;6.898;2023-02-03T09:12:39;5.20;;;1.90;;
6300;SDS011;3183;51.010;6.898;2023-02-03T09:15:06;6.17;;;1.93;;
6300;SDS011;3183;51.010;6.898;2023-02-03T09:17:33;4.57;;;1.90;;
6300;SDS011;3183;51.010;6.898;2023-02-03T09:20:02;5.87;;;2.37;;
6300;SDS011;3183;51.010;6.898;2023-02-03T09:22:29;4.00;;;1.73;;
6300;SDS011;3183;51.010;6.898;2023-02-03T09:24:56;3.30;;;2.10;;
6300;SDS011;3183;51.010;6.898;2023-02-03T09:27:23;11.47;;;2.47;;
6300;SDS011;3183;51.010;6.898;2023-02-03T09:29:51;8.00;;;3.17;;
6300;SDS011;3183;51.010;6.898;2023-02-03T09:32:18;7.30;;;2.13;;
6300;SDS011;3183;51.010;6.898;2023-02-03T09:34:45;4.20;;;1.83;;
6300;SDS011;3183;51.010;6.898;2023-02-03T09:37:13;8.00;;;2.57;;
6300;SDS011;3183;51.010;6.898;2023-02-03T09:39:40;8.77;;;2.40;;
6300;SDS011;3183;51.010;6.898;2023-02-03T09:42:09;8.07;;;3.03;;
6300;SDS011;3183;51.010;6.898;2023-02-03T09:44:41;6.37;;;2.63;;
6300;SDS011;3183;51.010;6.898;2023-02-03T09:47:11;10.50;;;2.77;;
6300;SDS011;3183;51.010;6.898;2023-02-03T09:49:40;9.70;;;2.30;;
6300;SDS011;3183;51.010;6.898;2023-02-03T09:52:08;11.23;;;3.27;;
6300;SDS011;3183;51.010;6.898;2023-02-03T09:54:40;9.90;;;1.90;;
6300;SDS011;3183;51.010;6.898;2023-02-03T09:57:11;7.00;;;2.40;;
6300;SDS011;3183;51.010;6.898;2023-02-03T09:59:39;12.03;;;3.00;;
6300;SDS011;3183;51.010;6.898;2023-02-03T10:02:11;17.27;;;2.50;;
6300;SDS011;3183;51.010;6.898;2023-02-03T10:04:41;4.03;;;2.20;;
6300;SDS011;3183;51.010;6.898;2023-02-03T10:07:10;3.97;;;2.60;;
6300;SDS011;3183;51.010;6.898;2023-02-03T10:09:44;6.87;;;2.47;;
6300;SDS011;3183;51.010;6.898;2023-02-03T10:12:16;9.43;;;3.00;;
6300;SDS011;3183;51.010;6.898;2023-02-03T10:14:57;11.50;;;2.10;;
6300;SDS011;3183;51.010;6.898;2023-02-03T10:17:27;4.50;;;2.60;;
6300;SDS011;3183;51.010;6.898;2023-02-03T10:19:57;8.40;;;2.60;;
6300;SDS011;3183;51.010;6.898;2023-02-03T10:22:26;6.60;;;2.93;;
6300;SDS011;3183;51.010;6.898;2023-02-03T10:24:56;6.17;;;2.60;;
6300;SDS011;3183;51.010;6.898;2023-02-03T10:27:25;10.47;;;3.77;;
6300;SDS011;3183;51.010;6.898;2023-02-03T10:29:54;6.70;;;3.20;;
6300;SDS011;3183;51.010;6.898;2023-02-03T10:32:23;6.73;;;3.00;;
6300;SDS011;3183;51.010;6.898;2023-02-03T10:34:52;7.13;;;2.63;;
6300;SDS011;3183;51.010;6.898;2023-02-03T10:37:22;5.30;;;2.50;;
6300;SDS011;3183;51.010;6.898;2023-02-03T10:39:51;6.97;;;3.87;;
6300;SDS011;3183;51.010;6.898;2023-02-03T10:42:20;5.37;;;3.70;;
6300;SDS011;3183;51.010;6.898;2023-02-03T10:44:48;10.70;;;4.30;;
6300;SDS011;3183;51.010;6.898;2023-02-03T10:47:18;2.60;;;2.23;;
6300;SDS011;3183;51.010;6.898;2023-02-03T10:49:47;6.17;;;3.30;;
6300;SDS011;3183;51.010;6.898;2023-02-03T10:54:58;9.17;;;5.03;;
6300;SDS011;3183;51.010;6.898;2023-02-03T10:57:28;10.93;;;5.10;;
6300;SDS011;3183;51.010;6.898;2023-02-03T11:00:04;7.20;;;5.37;;
6300;SDS011;3183;51.010;6.898;2023-02-03T11:02:31;12.63;;;5.87;;
6300;SDS011;3183;51.010;6.898;2023-02-03T11:05:09;9.50;;;4.70;;
6300;SDS011;3183;51.010;6.898;2023-02-03T11:07:37;7.90;;;4.63;;
6300;SDS011;3183;51.010;6.898;2023-02-03T11:10:12;12.77;;;5.03;;
6300;SDS011;3183;51.010;6.898;2023-02-03T11:12:53;11.03;;;4.83;;
6300;SDS011;3183;51.010;6.898;2023-02-03T11:15:20;8.67;;;4.40;;
6300;SDS011;3183;51.010;6.898;2023-02-03T11:17:47;6.47;;;4.73;;
6300;SDS011;3183;51.010;6.898;2023-02-03T11:20:15;6.50;;;4.43;;
6300;SDS011;3183;51.010;6.898;2023-02-03T11:22:43;8.10;;;4.53;;
6300;SDS011;3183;51.010;6.898;2023-02-03T11:25:15;8.23;;;4.33;;
6300;SDS011;3183;51.010;6.898;2023-02-03T11:27:43;12.13;;;5.40;;
6300;SDS011;3183;51.010;6.898;2023-02-03T11:30:14;9.63;;;4.40;;
6300;SDS011;3183;51.010;6.898;2023-02-03T11:32:42;11.47;;;5.47;;
6300;SDS011;3183;51.010;6.898;2023-02-03T11:35:13;12.73;;;5.73;;
6300;SDS011;3183;51.010;6.898;2023-02-03T11:37:42;14.03;;;5.23;;
6300;SDS011;3183;51.010;6.898;2023-02-03T11:40:25;10.53;;;5.40;;
6300;SDS011;3183;51.010;6.898;2023-02-03T11:43:03;9.00;;;4.87;;
6300;SDS011;3183;51.010;6.898;2023-02-03T11:45:34;15.97;;;6.30;;
6300;SDS011;3183;51.010;6.898;2023-02-03T11:48:05;11.23;;;5.20;;
6300;SDS011;3183;51.010;6.898;2023-02-03T11:50:37;13.03;;;4.33;;
6300;SDS011;3183;51.010;6.898;2023-02-03T11:53:16;13.17;;;5.43;;
6300;SDS011;3183;51.010;6.898;2023-02-03T11:55:48;15.73;;;6.80;;
6300;SDS011;3183;51.010;6.898;2023-02-03T12:01:07;11.60;;;6.80;;
6300;SDS011;3183;51.010;6.898;2023-02-03T12:09:09;11.50;;;6.90;;
6300;SDS011;3183;51.010;6.898;2023-02-03T12:11:43;13.57;;;7.03;;
6300;SDS011;3183;51.010;6.898;2023-02-03T12:14:15;11.93;;;6.50;;
6300;SDS011;3183;51.010;6.898;2023-02-03T12:16:51;13.07;;;6.17;;
6300;SDS011;3183;51.010;6.898;2023-02-03T12:19:23;15.30;;;7.10;;
6300;SDS011;3183;51.010;6.898;2023-02-03T12:21:54;12.53;;;6.50;;
6300;SDS011;3183;51.010;6.898;2023-02-03T12:24:27;15.63;;;7.67;;
6300;SDS011;3183;51.010;6.898;2023-02-03T12:26:59;14.20;;;6.27;;
6300;SDS011;3183;51.010;6.898;2023-02-03T12:29:31;13.80;;;6.10;;
6300;SDS011;3183;51.010;6.898;2023-02-03T12:32:04;9.33;;;7.27;;
6300;SDS011;3183;51.010;6.898;2023-02-03T12:34:34;12.83;;;6.70;;
6300;SDS011;3183;51.010;6.898;2023-02-03T12:37:04;15.57;;;8.10;;
6300;SDS011;3183;51.010;6.898;2023-02-03T12:39:33;16.63;;;7.37;;
6300;SDS011;3183;51.010;6.898;2023-02-03T12:42:02;13.70;;;7.57;;
6300;SDS011;3183;51.010;6.898;2023-02-03T12:44:32;14.50;;;7.40;;
6300;SDS011;3183;51.010;6.898;2023-02-03T12:47:03;15.20;;;7.93;;
6300;SDS011;3183;51.010;6.898;2023-02-03T12:49:34;23.73;;;7.57;;
6300;SDS011;3183;51.010;6.898;2023-02-03T12:52:04;13.40;;;6.93;;
6300;SDS011;3183;51.010;6.898;2023-02-03T12:54:38;14.57;;;7.77;;
6300;SDS011;3183;51.010;6.898;2023-02-03T12:57:10;21.43;;;8.50;;
6300;SDS011;3183;51.010;6.898;2023-02-03T12:59:39;15.27;;;8.23;;
6300;SDS011;3183;51.010;6.898;2023-02-03T13:02:13;14.47;;;7.10;;
6300;SDS011;3183;51.010;6.898;2023-02-03T13:04:42;17.93;;;8.27;;
6300;SDS011;3183;51.010;6.898;2023-02-03T13:07:11;23.10;;;9.93;;
6300;SDS011;3183;51.010;6.898;2023-02-03T13:09:43;16.13;;;8.40;;
6300;SDS011;3183;51.010;6.898;2023-02-03T13:12:16;11.90;;;8.10;;
6300;SDS011;3183;51.010;6.898;2023-02-03T13:14:47;13.67;;;8.57;;
6300;SDS011;3183;51.010;6.898;2023-02-03T13:17:19;13.17;;;7.90;;
6300;SDS011;3183;51.010;6.898;2023-02-03T13:19:49;19.33;;;9.70;;
6300;SDS011;3183;51.010;6.898;2023-02-03T13:22:17;12.10;;;8.17;;
6300;SDS011;3183;51.010;6.898;2023-02-03T13:24:48;17.43;;;9.20;;
6300;SDS011;3183;51.010;6.898;2023-02-03T13:27:21;21.53;;;9.53;;
6300;SDS011;3183;51.010;6.898;2023-02-03T13:29:59;17.70;;;8.43;;
6300;SDS011;3183;51.010;6.898;2023-02-03T13:32:36;15.13;;;8.70;;
6300;SDS011;3183;51.010;6.898;2023-02-03T13:35:13;13.20;;;7.90;;
6300;SDS011;3183;51.010;6.898;2023-02-03T13:37:53;14.13;;;8.23;;
6300;SDS011;3183;51.010;6.898;2023-02-03T13:40:28;25.57;;;9.10;;
6300;SDS011;3183;51.010;6.898;2023-02-03T13:42:56;13.50;;;7.60;;
6300;SDS011;3183;51.010;6.898;2023-02-03T13:45:25;19.87;;;7.00;;
6300;SDS011;3183;51.010;6.898;2023-02-03T13:47:55;16.27;;;9.03;;
6300;SDS011;3183;51.010;6.898;2023-02-03T13:50:23;17.93;;;8.93;;
6300;SDS011;3183;51.010;6.898;2023-02-03T13:52:52;12.43;;;6.27;;
6300;SDS011;3183;51.010;6.898;2023-02-03T13:55:24;9.40;;;6.27;;
6300;SDS011;3183;51.010;6.898;2023-02-03T13:57:52;13.27;;;6.90;;
6300;SDS011;3183;51.010;6.898;2023-02-03T14:03:15;12.10;;;6.57;;
6300;SDS011;3183;51.010;6.898;2023-02-03T14:05:43;8.73;;;5.57;;
6300;SDS011;3183;51.010;6.898;2023-02-03T14:13:43;8.20;;;5.00;;
6300;SDS011;3183;51.010;6.898;2023-02-03T14:16:21;11.23;;;4.97;;
6300;SDS011;3183;51.010;6.898;2023-02-03T14:18:50;16.23;;;4.83;;
6300;SDS011;3183;51.010;6.898;2023-02-03T14:21:18;12.67;;;4.87;;
6300;SDS011;3183;51.010;6.898;2023-02-03T14:23:57;13.47;;;4.83;;
6300;SDS011;3183;51.010;6.898;2023-02-03T14:26:38;11.00;;;4.60;;
6300;SDS011;3183;51.010;6.898;2023-02-03T14:29:07;16.87;;;4.60;;
6300;SDS011;3183;51.010;6.898;2023-02-03T14:34:19;9.10;;;4.63;;
6300;SDS011;3183;51.010;6.898;2023-02-03T14:36:53;15.50;;;5.13;;
6300;SDS011;3183;51.010;6.898;2023-02-03T14:42:23;15.03;;;4.10;;
6300;SDS011;3183;51.010;6.898;2023-02-03T14:44:58;11.40;;;4.50;;
6300;SDS011;3183;51.010;6.898;2023-02-03T14:47:34;14.77;;;4.70;;
6300;SDS011;3183;51.010;6.898;2023-02-03T14:53:15;6.80;;;3.67;;
6300;SDS011;3183;51.010;6.898;2023-02-03T14:55:49;8.13;;;4.20;;
6300;SDS011;3183;51.010;6.898;2023-02-03T14:58:20;12.43;;;4.20;;
6300;SDS011;3183;51.010;6.898;2023-02-03T15:00:48;10.90;;;3.60;;
6300;SDS011;3183;51.010;6.898;2023-02-03T15:03:19;6.97;;;3.93;;
6300;SDS011;3183;51.010;6.898;2023-02-03T15:05:49;16.23;;;3.83;;
6300;SDS011;3183;51.010;6.898;2023-02-03T15:08:40;6.67;;;3.37;;
6300;SDS011;3183;51.010;6.898;2023-02-03T15:11:15;14.13;;;4.60;;
6300;SDS011;3183;51.010;6.898;2023-02-03T15:13:47;11.90;;;3.90;;
6300;SDS011;3183;51.010;6.898;2023-02-03T15:16:15;10.80;;;3.90;;
6300;SDS011;3183;51.010;6.898;2023-02-03T15:18:44;7.13;;;3.90;;
6300;SDS011;3183;51.010;6.898;2023-02-03T15:21:13;7.70;;;3.40;;
6300;SDS011;3183;51.010;6.898;2023-02-03T15:23:43;21.07;;;4.17;;
6300;SDS011;3183;51.010;6.898;2023-02-03T15:26:12;7.30;;;3.90;;
6300;SDS011;3183;51.010;6.898;2023-02-03T15:28:40;10.40;;;4.03;;
6300;SDS011;3183;51.010;6.898;2023-02-03T15:31:08;12.87;;;3.47;;
6300;SDS011;3183;51.010;6.898;2023-02-03T15:33:40;11.97;;;3.83;;
6300;SDS011;3183;51.010;6.898;2023-02-03T15:36:12;13.67;;;3.37;;
6300;SDS011;3183;51.010;6.898;2023-02-03T15:38:43;14.50;;;4.20;;
6300;SDS011;3183;51.010;6.898;2023-02-03T15:41:15;12.20;;;4.20;;
6300;SDS011;3183;51.010;6.898;2023-02-03T15:43:44;14.23;;;4.40;;
6300;SDS011;3183;51.010;6.898;2023-02-03T15:46:13;12.17;;;3.60;;
6300;SDS011;3183;51.010;6.898;2023-02-03T15:48:43;10.57;;;4.10;;
6300;SDS011;3183;51.010;6.898;2023-02-03T15:51:13;12.00;;;3.40;;
6300;SDS011;3183;51.010;6.898;2023-02-03T15:53:50;8.03;;;3.63;;
6300;SDS011;3183;51.010;6.898;2023-02-03T15:56:19;13.00;;;4.33;;